sensor_id;sensor_type;location;lat;lon;timestamp;pressure;altitude;pressure_sealevel;temperature;humidity
15568;BME280;7885;42.596;23.044;2023-04-08T00:01:35;92972.41;;;6.17;72.74
15568;BME280;7885;42.596;23.044;2023-04-08T00:04:03;92975.44;;;6.12;71.66
15568;BME280;7885;42.596;23.044;2023-04-08T00:06:30;92964.63;;;6.12;71.03
15568;BME280;7885;42.596;23.044;2023-04-08T00:12:30;92975.44;;;6.12;72.36
15568;BME280;7885;42.596;23.044;2023-04-08T00:14:57;92961.41;;;6.03;73.33
15568;BME280;7885;42.596;23.044;2023-04-08T00:17:24;92971.78;;;6.01;73.84
15568;BME280;7885;42.596;23.044;2023-04-08T00:19:52;92967.91;;;5.98;73.22
15568;BME280;7885;42.596;23.044;2023-04-08T00:22:19;92973.56;;;5.90;74.28
15568;BME280;7885;42.596;23.044;2023-04-08T00:24:46;92968.16;;;5.90;73.51
15568;BME280;7885;42.596;23.044;2023-04-08T00:27:13;92972.13;;;5.96;74.28
15568;BME280;7885;42.596;23.044;2023-04-08T00:29:39;92962.84;;;5.97;74.47
15568;BME280;7885;42.596;23.044;2023-04-08T00:32:06;92959.25;;;5.86;74.86
15568;BME280;7885;42.596;23.044;2023-04-08T00:34:33;92965.41;;;5.86;73.67
15568;BME280;7885;42.596;23.044;2023-04-08T00:37:01;92974.28;;;5.87;72.77
15568;BME280;7885;42.596;23.044;2023-04-08T00:39:27;92972.66;;;5.82;73.30
15568;BME280;7885;42.596;23.044;2023-04-08T00:41:54;92966.66;;;5.70;73.90
15568;BME280;7885;42.596;23.044;2023-04-08T00:44:21;92964.28;;;5.65;74.82
15568;BME280;7885;42.596;23.044;2023-04-08T00:46:48;92960.00;;;5.64;76.61
15568;BME280;7885;42.596;23.044;2023-04-08T00:49:15;92955.00;;;5.66;76.28
15568;BME280;7885;42.596;23.044;2023-04-08T00:51:42;92950.34;;;5.63;76.25
15568;BME280;7885;42.596;23.044;2023-04-08T00:54:10;92965.53;;;5.71;76.51
15568;BME280;7885;42.596;23.044;2023-04-08T00:56:37;92964.75;;;5.70;75.62
15568;BME280;7885;42.596;23.044;2023-04-08T00:59:04;92953.59;;;5.72;75.06
15568;BME280;7885;42.596;23.044;2023-04-08T01:01:36;92961.00;;;5.78;74.46
15568;BME280;7885;42.596;23.044;2023-04-08T01:04:12;92965.63;;;5.78;74.67
15568;BME280;7885;42.596;23.044;2023-04-08T01:06:48;92960.13;;;5.71;75.27
15568;BME280;7885;42.596;23.044;2023-04-08T01:09:18;92966.34;;;5.75;76.12
15568;BME280;7885;42.596;23.044;2023-04-08T01:11:49;92963.97;;;5.70;76.65
15568;BME280;7885;42.596;23.044;2023-04-08T01:14:20;92967.94;;;5.76;75.75
15568;BME280;7885;42.596;23.044;2023-04-08T01:16:49;92972.28;;;5.84;74.39
15568;BME280;7885;42.596;23.044;2023-04-08T01:19:20;92960.97;;;5.75;74.40
15568;BME280;7885;42.596;23.044;2023-04-08T01:21:49;92970.44;;;5.88;76.10
15568;BME280;7885;42.596;23.044;2023-04-08T01:24:24;92958.78;;;5.84;75.33
15568;BME280;7885;42.596;23.044;2023-04-08T01:26:54;92956.94;;;5.88;75.62
15568;BME280;7885;42.596;23.044;2023-04-08T01:29:23;92969.81;;;5.98;76.02
15568;BME280;7885;42.596;23.044;2023-04-08T01:31:51;92971.38;;;5.99;74.66
15568;BME280;7885;42.596;23.044;2023-04-08T01:34:20;92974.50;;;6.01;75.82
15568;BME280;7885;42.596;23.044;2023-04-08T01:36:48;92974.09;;;5.99;76.40
15568;BME280;7885;42.596;23.044;2023-04-08T01:39:17;92953.84;;;5.86;74.79
15568;BME280;7885;42.596;23.044;2023-04-08T01:41:45;92968.25;;;5.97;73.33
15568;BME280;7885;42.596;23.044;2023-04-08T01:44:15;92972.22;;;6.03;73.89
15568;BME280;7885;42.596;23.044;2023-04-08T01:46:43;92977.69;;;6.06;73.60
15568;BME280;7885;42.596;23.044;2023-04-08T01:49:10;92976.94;;;6.09;73.53
15568;BME280;7885;42.596;23.044;2023-04-08T01:51:38;92982.41;;;6.13;73.85
15568;BME280;7885;42.596;23.044;2023-04-08T01:54:04;92993.25;;;6.17;75.45
15568;BME280;7885;42.596;23.044;2023-04-08T01:56:35;92992.47;;;6.16;74.70
15568;BME280;7885;42.596;23.044;2023-04-08T01:59:09;92996.31;;;6.15;74.89
15568;BME280;7885;42.596;23.044;2023-04-08T02:01:37;93003.28;;;6.16;73.71
15568;BME280;7885;42.596;23.044;2023-04-08T02:04:04;93004.47;;;6.19;73.03
15568;BME280;7885;42.596;23.044;2023-04-08T02:06:31;93002.03;;;6.10;73.28
15568;BME280;7885;42.596;23.044;2023-04-08T02:08:59;93007.53;;;6.17;72.94
15568;BME280;7885;42.596;23.044;2023-04-08T02:11:26;93013.25;;;6.12;72.90
15568;BME280;7885;42.596;23.044;2023-04-08T02:13:53;93013.97;;;6.09;73.42
15568;BME280;7885;42.596;23.044;2023-04-08T02:16:23;93010.09;;;6.06;74.09
15568;BME280;7885;42.596;23.044;2023-04-08T02:18:55;92999.63;;;6.05;75.04
15568;BME280;7885;42.596;23.044;2023-04-08T02:21:26;93010.50;;;6.08;75.36
15568;BME280;7885;42.596;23.044;2023-04-08T02:24:01;92985.19;;;5.94;75.54
15568;BME280;7885;42.596;23.044;2023-04-08T02:26:32;93006.59;;;6.06;74.99
15568;BME280;7885;42.596;23.044;2023-04-08T02:29:00;93010.84;;;6.07;74.02
15568;BME280;7885;42.596;23.044;2023-04-08T02:31:28;93010.97;;;6.14;73.03
15568;BME280;7885;42.596;23.044;2023-04-08T02:33:57;93008.69;;;6.16;72.54
15568;BME280;7885;42.596;23.044;2023-04-08T02:36:24;93010.56;;;6.12;72.88
15568;BME280;7885;42.596;23.044;2023-04-08T02:38:51;93004.00;;;6.13;73.00
15568;BME280;7885;42.596;23.044;2023-04-08T02:41:18;93012.47;;;6.12;72.67
15568;BME280;7885;42.596;23.044;2023-04-08T02:43:45;93005.50;;;6.10;73.02
15568;BME280;7885;42.596;23.044;2023-04-08T02:46:12;93012.53;;;6.15;73.18
15568;BME280;7885;42.596;23.044;2023-04-08T02:48:39;93002.38;;;6.08;73.55
15568;BME280;7885;42.596;23.044;2023-04-08T02:51:07;93007.06;;;6.12;73.44
15568;BME280;7885;42.596;23.044;2023-04-08T02:53:33;92999.22;;;6.03;74.10
15568;BME280;7885;42.596;23.044;2023-04-08T02:56:00;93005.59;;;6.18;73.70
15568;BME280;7885;42.596;23.044;2023-04-08T02:58:27;93008.69;;;6.16;74.15
15568;BME280;7885;42.596;23.044;2023-04-08T03:00:54;93001.72;;;6.15;75.28
15568;BME280;7885;42.596;23.044;2023-04-08T03:03:20;93001.31;;;6.13;75.60
15568;BME280;7885;42.596;23.044;2023-04-08T03:05:51;92998.97;;;6.12;76.24
15568;BME280;7885;42.596;23.044;2023-04-08T03:08:20;92999.63;;;6.05;76.21
15568;BME280;7885;42.596;23.044;2023-04-08T03:10:46;92995.38;;;6.04;75.78
15568;BME280;7885;42.596;23.044;2023-04-08T03:13:13;93000.78;;;6.04;76.12
15568;BME280;7885;42.596;23.044;2023-04-08T03:15:40;92988.31;;;5.96;76.50
15568;BME280;7885;42.596;23.044;2023-04-08T03:18:07;92995.25;;;5.97;76.55
15568;BME280;7885;42.596;23.044;2023-04-08T03:20:34;92984.28;;;5.86;76.77
15568;BME280;7885;42.596;23.044;2023-04-08T03:23:00;92979.13;;;5.78;77.11
15568;BME280;7885;42.596;23.044;2023-04-08T03:25:28;93004.34;;;5.85;76.88
15568;BME280;7885;42.596;23.044;2023-04-08T03:27:57;92990.78;;;5.82;77.29
15568;BME280;7885;42.596;23.044;2023-04-08T03:30:24;93003.50;;;5.81;77.43
15568;BME280;7885;42.596;23.044;2023-04-08T03:32:51;92990.28;;;5.76;78.12
15568;BME280;7885;42.596;23.044;2023-04-08T03:35:17;92995.94;;;5.68;77.99
15568;BME280;7885;42.596;23.044;2023-04-08T03:37:44;92995.50;;;5.66;78.02
15568;BME280;7885;42.596;23.044;2023-04-08T03:40:11;92993.97;;;5.65;78.70
15568;BME280;7885;42.596;23.044;2023-04-08T03:42:39;92993.31;;;5.71;79.12
15568;BME280;7885;42.596;23.044;2023-04-08T03:45:07;92989.41;;;5.69;79.42
15568;BME280;7885;42.596;23.044;2023-04-08T03:47:34;92993.59;;;5.66;79.81
15568;BME280;7885;42.596;23.044;2023-04-08T03:50:00;93004.84;;;5.68;79.75
15568;BME280;7885;42.596;23.044;2023-04-08T03:52:27;92990.00;;;5.58;79.33
15568;BME280;7885;42.596;23.044;2023-04-08T03:54:54;92992.34;;;5.60;79.30
15568;BME280;7885;42.596;23.044;2023-04-08T03:57:21;93000.38;;;5.56;79.42
15568;BME280;7885;42.596;23.044;2023-04-08T03:59:49;93009.28;;;5.57;78.43
15568;BME280;7885;42.596;23.044;2023-04-08T04:02:15;92999.97;;;5.54;78.57
15568;BME280;7885;42.596;23.044;2023-04-08T04:04:42;92999.97;;;5.54;77.79
15568;BME280;7885;42.596;23.044;2023-04-08T04:07:09;93006.19;;;5.58;79.35
15568;BME280;7885;42.596;23.044;2023-04-08T04:09:36;93002.81;;;5.62;78.68
15568;BME280;7885;42.596;23.044;2023-04-08T04:12:02;93002.06;;;5.65;79.13
15568;BME280;7885;42.596;23.044;2023-04-08T04:14:29;93000.78;;;5.58;79.86
15568;BME280;7885;42.596;23.044;2023-04-08T04:16:57;93007.88;;;5.67;78.94
15568;BME280;7885;42.596;23.044;2023-04-08T04:19:24;93002.06;;;5.65;78.73
15568;BME280;7885;42.596;23.044;2023-04-08T04:21:50;93005.50;;;5.62;79.23
15568;BME280;7885;42.596;23.044;2023-04-08T04:24:17;93004.94;;;5.52;79.53
15568;BME280;7885;42.596;23.044;2023-04-08T04:26:44;93004.53;;;5.50;80.45
15568;BME280;7885;42.596;23.044;2023-04-08T04:29:10;93009.09;;;5.46;79.66
15568;BME280;7885;42.596;23.044;2023-04-08T04:31:37;92997.31;;;5.35;79.74
15568;BME280;7885;42.596;23.044;2023-04-08T04:34:05;93014.50;;;5.46;79.73
15568;BME280;7885;42.596;23.044;2023-04-08T04:36:32;93010.66;;;5.47;79.99
15568;BME280;7885;42.596;23.044;2023-04-08T04:38:59;92999.97;;;5.54;80.21
15568;BME280;7885;42.596;23.044;2023-04-08T04:41:25;93008.59;;;5.64;79.54
15568;BME280;7885;42.596;23.044;2023-04-08T04:43:52;93011.06;;;5.72;78.50
15568;BME280;7885;42.596;23.044;2023-04-08T04:46:19;93003.31;;;5.71;79.01
15568;BME280;7885;42.596;23.044;2023-04-08T04:48:45;93003.03;;;5.76;78.72
15568;BME280;7885;42.596;23.044;2023-04-08T04:51:13;93008.91;;;5.81;80.12
15568;BME280;7885;42.596;23.044;2023-04-08T04:53:40;92996.47;;;5.77;81.05
15568;BME280;7885;42.596;23.044;2023-04-08T04:56:07;93009.94;;;5.96;81.49
15568;BME280;7885;42.596;23.044;2023-04-08T04:58:34;93016.19;;;6.03;80.70
15568;BME280;7885;42.596;23.044;2023-04-08T05:01:00;93020.16;;;6.09;79.20
15568;BME280;7885;42.596;23.044;2023-04-08T05:03:27;93017.97;;;6.19;78.63
15568;BME280;7885;42.596;23.044;2023-04-08T05:05:54;93030.50;;;6.30;76.77
15568;BME280;7885;42.596;23.044;2023-04-08T05:08:22;93034.75;;;6.31;76.63
15568;BME280;7885;42.596;23.044;2023-04-08T05:10:49;93031.75;;;6.36;76.01
15568;BME280;7885;42.596;23.044;2023-04-08T05:13:16;93036.41;;;6.39;75.85
15568;BME280;7885;42.596;23.044;2023-04-08T05:15:43;93036.13;;;6.44;75.58
15568;BME280;7885;42.596;23.044;2023-04-08T05:18:10;93035.38;;;6.47;74.77
15568;BME280;7885;42.596;23.044;2023-04-08T05:20:37;93030.81;;;6.51;74.63
15568;BME280;7885;42.596;23.044;2023-04-08T05:23:04;93018.03;;;6.52;74.58
15568;BME280;7885;42.596;23.044;2023-04-08T05:25:33;93022.84;;;6.66;74.19
15568;BME280;7885;42.596;23.044;2023-04-08T05:38:05;93011.66;;;6.64;72.96
15568;BME280;7885;42.596;23.044;2023-04-08T05:40:33;93033.47;;;6.78;73.44
15568;BME280;7885;42.596;23.044;2023-04-08T05:43:00;93029.72;;;6.86;72.90
15568;BME280;7885;42.596;23.044;2023-04-08T05:45:27;93035.91;;;6.90;73.09
15568;BME280;7885;42.596;23.044;2023-04-08T05:47:54;93024.38;;;6.93;72.94
15568;BME280;7885;42.596;23.044;2023-04-08T05:50:20;93031.47;;;7.04;71.97
15568;BME280;7885;42.596;23.044;2023-04-08T05:52:47;93030.00;;;7.14;72.35
15568;BME280;7885;42.596;23.044;2023-04-08T05:55:14;93009.94;;;7.15;71.27
15568;BME280;7885;42.596;23.044;2023-04-08T05:57:42;93024.41;;;7.30;71.43
15568;BME280;7885;42.596;23.044;2023-04-08T06:00:09;93008.56;;;7.32;71.13
15568;BME280;7885;42.596;23.044;2023-04-08T06:02:37;93010.22;;;7.43;69.41
15568;BME280;7885;42.596;23.044;2023-04-08T06:05:04;93024.31;;;7.59;68.97
15568;BME280;7885;42.596;23.044;2023-04-08T06:07:31;93019.84;;;7.78;69.03
15568;BME280;7885;42.596;23.044;2023-04-08T06:09:58;93002.06;;;7.84;68.15
15568;BME280;7885;42.596;23.044;2023-04-08T06:12:25;93022.00;;;8.05;68.17
15568;BME280;7885;42.596;23.044;2023-04-08T06:14:54;93015.91;;;8.19;67.52
15568;BME280;7885;42.596;23.044;2023-04-08T06:17:21;93015.22;;;8.29;66.14
15568;BME280;7885;42.596;23.044;2023-04-08T06:19:48;93015.28;;;8.36;66.23
15568;BME280;7885;42.596;23.044;2023-04-08T06:22:15;93014.91;;;8.41;65.70
15568;BME280;7885;42.596;23.044;2023-04-08T06:24:41;93027.38;;;8.53;65.48
15568;BME280;7885;42.596;23.044;2023-04-08T06:27:08;93025.88;;;8.59;65.16
15568;BME280;7885;42.596;23.044;2023-04-08T06:29:35;93024.75;;;8.63;64.84
15568;BME280;7885;42.596;23.044;2023-04-08T06:32:03;93027.81;;;8.62;64.92
15568;BME280;7885;42.596;23.044;2023-04-08T06:34:30;93026.66;;;8.59;65.33
15568;BME280;7885;42.596;23.044;2023-04-08T06:36:57;93028.25;;;8.68;65.79
15568;BME280;7885;42.596;23.044;2023-04-08T06:39:23;93028.25;;;8.68;65.71
15568;BME280;7885;42.596;23.044;2023-04-08T06:41:50;93020.91;;;8.72;65.25
15568;BME280;7885;42.596;23.044;2023-04-08T06:44:18;93031.09;;;8.89;64.73
15568;BME280;7885;42.596;23.044;2023-04-08T06:46:45;93037.34;;;9.07;63.82
15568;BME280;7885;42.596;23.044;2023-04-08T06:49:13;93033.56;;;9.29;63.57
15568;BME280;7885;42.596;23.044;2023-04-08T06:51:40;93029.75;;;9.48;62.48
15568;BME280;7885;42.596;23.044;2023-04-08T06:54:07;93037.16;;;9.61;61.65
15568;BME280;7885;42.596;23.044;2023-04-08T06:56:34;93033.28;;;9.73;61.08
15568;BME280;7885;42.596;23.044;2023-04-08T06:59:01;93028.63;;;9.67;61.25
15568;BME280;7885;42.596;23.044;2023-04-08T07:01:28;93033.69;;;9.72;61.61
15568;BME280;7885;42.596;23.044;2023-04-08T07:03:56;93034.06;;;9.74;61.16
15568;BME280;7885;42.596;23.044;2023-04-08T07:06:24;93037.94;;;9.80;61.26
15568;BME280;7885;42.596;23.044;2023-04-08T07:08:51;93039.88;;;9.83;61.94
15568;BME280;7885;42.596;23.044;2023-04-08T07:11:17;93039.50;;;9.81;61.00
15568;BME280;7885;42.596;23.044;2023-04-08T07:13:45;93044.16;;;9.84;60.91
15568;BME280;7885;42.596;23.044;2023-04-08T07:16:12;93020.84;;;9.61;61.65
15568;BME280;7885;42.596;23.044;2023-04-08T07:18:38;93044.94;;;9.70;61.23
15568;BME280;7885;42.596;23.044;2023-04-08T07:21:06;93044.91;;;9.56;61.21
15568;BME280;7885;42.596;23.044;2023-04-08T07:23:34;93047.59;;;9.56;61.95
15568;BME280;7885;42.596;23.044;2023-04-08T07:26:02;93040.22;;;9.46;61.58
15568;BME280;7885;42.596;23.044;2023-04-08T07:28:29;93048.00;;;9.47;61.70
15568;BME280;7885;42.596;23.044;2023-04-08T07:30:56;93058.09;;;9.50;62.03
15568;BME280;7885;42.596;23.044;2023-04-08T07:33:23;93058.09;;;9.57;62.69
15568;BME280;7885;42.596;23.044;2023-04-08T07:35:51;93050.34;;;9.59;62.43
15568;BME280;7885;42.596;23.044;2023-04-08T07:38:17;93062.06;;;9.88;61.59
15568;BME280;7885;42.596;23.044;2023-04-08T07:40:46;93065.19;;;10.11;60.86
15568;BME280;7885;42.596;23.044;2023-04-08T07:43:12;93055.13;;;10.26;60.31
15568;BME280;7885;42.596;23.044;2023-04-08T07:45:39;93061.34;;;10.51;58.40
15568;BME280;7885;42.596;23.044;2023-04-08T07:48:06;93053.16;;;10.58;58.00
15568;BME280;7885;42.596;23.044;2023-04-08T07:50:35;93064.41;;;10.82;56.80
15568;BME280;7885;42.596;23.044;2023-04-08T07:53:01;93066.69;;;10.94;56.94
15568;BME280;7885;42.596;23.044;2023-04-08T07:55:32;93067.84;;;11.07;55.87
15568;BME280;7885;42.596;23.044;2023-04-08T07:58:00;93058.91;;;11.03;54.95
15568;BME280;7885;42.596;23.044;2023-04-08T08:00:27;93054.19;;;11.14;55.13
15568;BME280;7885;42.596;23.044;2023-04-08T08:02:55;93073.91;;;11.53;55.55
15568;BME280;7885;42.596;23.044;2023-04-08T08:05:22;93069.47;;;11.88;54.57
15568;BME280;7885;42.596;23.044;2023-04-08T08:07:49;93064.97;;;12.22;54.13
15568;BME280;7885;42.596;23.044;2023-04-08T08:10:15;93076.69;;;12.71;52.97
15568;BME280;7885;42.596;23.044;2023-04-08T08:12:42;93080.25;;;13.05;51.76
15568;BME280;7885;42.596;23.044;2023-04-08T08:15:11;93082.41;;;13.24;50.12
15568;BME280;7885;42.596;23.044;2023-04-08T08:17:39;93075.00;;;13.58;48.65
15568;BME280;7885;42.596;23.044;2023-04-08T08:20:07;93069.09;;;13.94;47.00
15568;BME280;7885;42.596;23.044;2023-04-08T08:22:34;93076.88;;;14.52;46.90
15568;BME280;7885;42.596;23.044;2023-04-08T08:25:03;93066.28;;;14.78;44.14
15568;BME280;7885;42.596;23.044;2023-04-08T08:27:30;93067.59;;;14.70;44.44
15568;BME280;7885;42.596;23.044;2023-04-08T08:29:58;93071.28;;;14.83;44.46
15568;BME280;7885;42.596;23.044;2023-04-08T08:32:27;93074.75;;;14.87;44.76
15568;BME280;7885;42.596;23.044;2023-04-08T08:34:53;93073.50;;;14.91;43.95
15568;BME280;7885;42.596;23.044;2023-04-08T08:37:20;93078.63;;;15.12;43.00
15568;BME280;7885;42.596;23.044;2023-04-08T08:39:47;93073.34;;;15.64;43.58
15568;BME280;7885;42.596;23.044;2023-04-08T08:42:18;93065.00;;;16.43;41.50
15568;BME280;7885;42.596;23.044;2023-04-08T08:44:48;93063.94;;;17.34;39.86
15568;BME280;7885;42.596;23.044;2023-04-08T08:47:15;93044.34;;;17.90;37.47
15568;BME280;7885;42.596;23.044;2023-04-08T08:49:44;93057.75;;;18.29;36.67
15568;BME280;7885;42.596;23.044;2023-04-08T08:52:15;93049.41;;;18.58;34.61
15568;BME280;7885;42.596;23.044;2023-04-08T08:54:42;93058.06;;;18.31;35.85
15568;BME280;7885;42.596;23.044;2023-04-08T08:57:15;93041.41;;;18.09;34.30
15568;BME280;7885;42.596;23.044;2023-04-08T08:59:45;93059.97;;;17.93;33.79
15568;BME280;7885;42.596;23.044;2023-04-08T09:02:23;93050.94;;;17.80;34.43
15568;BME280;7885;42.596;23.044;2023-04-08T09:04:57;93057.78;;;17.88;34.80
15568;BME280;7885;42.596;23.044;2023-04-08T09:07:24;93050.00;;;17.41;35.52
15568;BME280;7885;42.596;23.044;2023-04-08T09:09:52;93059.00;;;16.97;36.30
15568;BME280;7885;42.596;23.044;2023-04-08T09:12:19;93058.53;;;16.86;35.89
15568;BME280;7885;42.596;23.044;2023-04-08T09:14:46;93062.28;;;16.92;36.38
15568;BME280;7885;42.596;23.044;2023-04-08T09:17:14;93050.06;;;16.93;35.68
15568;BME280;7885;42.596;23.044;2023-04-08T09:20:04;93056.91;;;17.33;35.02
15568;BME280;7885;42.596;23.044;2023-04-08T09:22:34;93051.91;;;17.44;35.66
15568;BME280;7885;42.596;23.044;2023-04-08T09:25:24;93055.66;;;17.50;36.00
15568;BME280;7885;42.596;23.044;2023-04-08T09:27:51;93044.84;;;17.43;35.56
15568;BME280;7885;42.596;23.044;2023-04-08T09:30:20;93045.91;;;17.62;34.98
15568;BME280;7885;42.596;23.044;2023-04-08T09:32:47;93039.75;;;17.99;33.90
15568;BME280;7885;42.596;23.044;2023-04-08T09:35:17;93037.38;;;18.39;33.34
15568;BME280;7885;42.596;23.044;2023-04-08T09:37:44;93033.94;;;18.98;29.58
15568;BME280;7885;42.596;23.044;2023-04-08T09:40:11;93024.22;;;19.28;30.19
15568;BME280;7885;42.596;23.044;2023-04-08T09:42:41;93029.66;;;18.85;29.20
15568;BME280;7885;42.596;23.044;2023-04-08T09:45:11;93033.50;;;18.37;30.99
15568;BME280;7885;42.596;23.044;2023-04-08T09:47:45;93035.56;;;17.95;30.91
15568;BME280;7885;42.596;23.044;2023-04-08T09:50:17;93028.31;;;18.26;30.94
15568;BME280;7885;42.596;23.044;2023-04-08T09:52:47;93033.63;;;17.79;30.88
15568;BME280;7885;42.596;23.044;2023-04-08T09:55:21;93030.88;;;19.18;28.83
15568;BME280;7885;42.596;23.044;2023-04-08T09:57:51;93020.72;;;19.84;27.85
15568;BME280;7885;42.596;23.044;2023-04-08T10:00:18;93032.44;;;18.59;28.54
15568;BME280;7885;42.596;23.044;2023-04-08T10:02:53;92993.66;;;17.17;30.37
15568;BME280;7885;42.596;23.044;2023-04-08T10:05:23;93010.84;;;17.50;31.80
15568;BME280;7885;42.596;23.044;2023-04-08T10:07:50;93015.63;;;18.03;31.17
15568;BME280;7885;42.596;23.044;2023-04-08T10:10:18;93015.47;;;17.24;31.65
15568;BME280;7885;42.596;23.044;2023-04-08T10:12:46;93010.41;;;17.51;32.01
15568;BME280;7885;42.596;23.044;2023-04-08T10:15:26;93023.41;;;17.80;30.53
15568;BME280;7885;42.596;23.044;2023-04-08T10:17:54;92993.50;;;16.63;30.76
15568;BME280;7885;42.596;23.044;2023-04-08T10:20:46;92997.72;;;16.67;31.21
15568;BME280;7885;42.596;23.044;2023-04-08T10:23:14;92998.91;;;16.66;32.30
15568;BME280;7885;42.596;23.044;2023-04-08T10:25:42;92994.16;;;16.35;32.15
15568;BME280;7885;42.596;23.044;2023-04-08T10:28:25;92995.53;;;15.35;32.12
15568;BME280;7885;42.596;23.044;2023-04-08T10:30:52;92998.81;;;15.07;34.29
15568;BME280;7885;42.596;23.044;2023-04-08T10:33:21;92995.44;;;14.99;34.45
15568;BME280;7885;42.596;23.044;2023-04-08T10:35:52;92964.66;;;15.31;33.71
15568;BME280;7885;42.596;23.044;2023-04-08T10:38:19;92977.94;;;17.46;34.62
15568;BME280;7885;42.596;23.044;2023-04-08T10:40:47;92982.00;;;20.27;28.23
15568;BME280;7885;42.596;23.044;2023-04-08T10:43:16;92974.69;;;22.09;25.71
15568;BME280;7885;42.596;23.044;2023-04-08T10:45:43;92958.91;;;21.46;24.72
15568;BME280;7885;42.596;23.044;2023-04-08T10:48:14;92980.13;;;19.72;25.95
15568;BME280;7885;42.596;23.044;2023-04-08T10:50:42;92965.94;;;17.94;28.36
15568;BME280;7885;42.596;23.044;2023-04-08T10:53:10;92965.25;;;18.79;29.16
15568;BME280;7885;42.596;23.044;2023-04-08T10:55:37;92953.88;;;18.77;28.76
15568;BME280;7885;42.596;23.044;2023-04-08T10:58:05;92959.53;;;17.85;29.50
15568;BME280;7885;42.596;23.044;2023-04-08T11:00:34;92934.69;;;16.60;30.66
15568;BME280;7885;42.596;23.044;2023-04-08T11:03:02;92947.03;;;16.52;30.18
15568;BME280;7885;42.596;23.044;2023-04-08T11:05:28;92935.03;;;16.46;30.76
15568;BME280;7885;42.596;23.044;2023-04-08T11:07:55;92975.53;;;16.26;30.94
15568;BME280;7885;42.596;23.044;2023-04-08T11:17:08;92963.00;;;13.78;34.82
15568;BME280;7885;42.596;23.044;2023-04-08T11:19:34;92960.00;;;13.69;36.81
15568;BME280;7885;42.596;23.044;2023-04-08T11:22:01;92951.53;;;13.60;36.27
15568;BME280;7885;42.596;23.044;2023-04-08T11:24:28;92965.75;;;13.51;37.16
15568;BME280;7885;42.596;23.044;2023-04-08T11:26:55;92956.78;;;13.17;37.94
15568;BME280;7885;42.596;23.044;2023-04-08T11:29:21;92954.53;;;13.42;37.92
15568;BME280;7885;42.596;23.044;2023-04-08T11:31:48;92963.41;;;13.77;37.20
15568;BME280;7885;42.596;23.044;2023-04-08T11:34:22;92957.28;;;13.96;34.90
15568;BME280;7885;42.596;23.044;2023-04-08T11:36:49;92939.09;;;14.09;34.79
15568;BME280;7885;42.596;23.044;2023-04-08T11:39:16;92940.97;;;14.82;34.21
15568;BME280;7885;42.596;23.044;2023-04-08T11:41:43;92939.47;;;15.56;33.56
15568;BME280;7885;42.596;23.044;2023-04-08T11:44:10;92945.13;;;15.49;34.00
15568;BME280;7885;42.596;23.044;2023-04-08T11:46:36;92956.63;;;14.81;34.16
15568;BME280;7885;42.596;23.044;2023-04-08T11:49:06;92930.59;;;14.50;33.89
15568;BME280;7885;42.596;23.044;2023-04-08T11:51:55;92958.47;;;13.95;34.14
15568;BME280;7885;42.596;23.044;2023-04-08T11:54:25;92954.91;;;13.71;36.54
15568;BME280;7885;42.596;23.044;2023-04-08T11:56:53;92960.53;;;13.87;37.41
15568;BME280;7885;42.596;23.044;2023-04-08T11:59:20;92959.88;;;14.30;36.71
15568;BME280;7885;42.596;23.044;2023-04-08T12:01:47;92951.81;;;14.19;36.17
15568;BME280;7885;42.596;23.044;2023-04-08T12:04:14;92956.81;;;14.71;35.14
15568;BME280;7885;42.596;23.044;2023-04-08T12:06:40;92947.63;;;14.81;38.41
15568;BME280;7885;42.596;23.044;2023-04-08T12:09:12;92958.50;;;14.64;43.40
15568;BME280;7885;42.596;23.044;2023-04-08T12:11:40;92940.19;;;14.81;43.76
15568;BME280;7885;42.596;23.044;2023-04-08T12:14:06;92938.16;;;15.05;43.46
15568;BME280;7885;42.596;23.044;2023-04-08T12:16:34;92931.84;;;14.88;43.19
15568;BME280;7885;42.596;23.044;2023-04-08T12:19:01;92940.56;;;15.03;42.80
15568;BME280;7885;42.596;23.044;2023-04-08T12:21:27;92940.97;;;15.21;43.47
15568;BME280;7885;42.596;23.044;2023-04-08T12:23:54;92938.59;;;15.23;42.58
15568;BME280;7885;42.596;23.044;2023-04-08T12:26:22;92933.31;;;15.32;42.97
15568;BME280;7885;42.596;23.044;2023-04-08T12:28:49;92929.81;;;15.51;42.16
15568;BME280;7885;42.596;23.044;2023-04-08T12:31:16;92938.06;;;15.68;41.80
15568;BME280;7885;42.596;23.044;2023-04-08T12:33:43;92924.44;;;15.80;41.94
15568;BME280;7885;42.596;23.044;2023-04-08T12:36:09;92928.13;;;15.90;41.91
15568;BME280;7885;42.596;23.044;2023-04-08T12:38:36;92927.66;;;15.95;41.98
15568;BME280;7885;42.596;23.044;2023-04-08T12:41:03;92917.69;;;16.01;41.68
15568;BME280;7885;42.596;23.044;2023-04-08T12:43:32;92914.25;;;15.97;42.05
15568;BME280;7885;42.596;23.044;2023-04-08T12:45:59;92913.91;;;16.11;41.95
15568;BME280;7885;42.596;23.044;2023-04-08T12:48:27;92913.94;;;16.27;41.74
15568;BME280;7885;42.596;23.044;2023-04-08T12:50:54;92923.69;;;16.28;41.11
15568;BME280;7885;42.596;23.044;2023-04-08T12:53:21;92915.28;;;16.19;40.83
15568;BME280;7885;42.596;23.044;2023-04-08T12:55:48;92927.06;;;16.20;39.53
15568;BME280;7885;42.596;23.044;2023-04-08T12:58:16;92922.34;;;16.20;39.46
15568;BME280;7885;42.596;23.044;2023-04-08T13:00:44;92903.44;;;15.90;38.76
15568;BME280;7885;42.596;23.044;2023-04-08T13:03:11;92899.50;;;15.75;38.25
15568;BME280;7885;42.596;23.044;2023-04-08T13:05:41;92925.91;;;15.85;38.62
15568;BME280;7885;42.596;23.044;2023-04-08T13:08:08;92904.94;;;15.58;38.49
15568;BME280;7885;42.596;23.044;2023-04-08T13:10:36;92916.91;;;15.48;39.83
15568;BME280;7885;42.596;23.044;2023-04-08T13:13:03;92908.56;;;15.36;39.08
15568;BME280;7885;42.596;23.044;2023-04-08T13:15:29;92893.56;;;14.85;41.10
15568;BME280;7885;42.596;23.044;2023-04-08T13:17:58;92915.22;;;14.56;41.67
15568;BME280;7885;42.596;23.044;2023-04-08T13:20:25;92921.72;;;14.19;42.35
15568;BME280;7885;42.596;23.044;2023-04-08T13:22:53;92896.47;;;13.85;43.72
15568;BME280;7885;42.596;23.044;2023-04-08T13:25:32;92926.00;;;13.70;43.48
15568;BME280;7885;42.596;23.044;2023-04-08T13:28:07;92929.19;;;13.38;44.67
15568;BME280;7885;42.596;23.044;2023-04-08T13:30:58;92927.91;;;13.46;45.66
15568;BME280;7885;42.596;23.044;2023-04-08T13:33:34;92920.16;;;13.41;44.69